Time;durP1;ratioP1;P1;durP2;ratioP2;P2;SDS_P1;SDS_P2;PMS_P1;PMS_P2;Temp;Humidity;BMP_temperature;BMP_pressure;BME280_temperature;BME280_humidity;BME280_pressure;Samples;Min_cycle;Max_cycle;Signal;HPM_P1;HPM_P2
2023/11/12 00:02:14;;;;;;;17.00;15.97;;;6.80;93.90;;;;;;4885365;29;20233;-52
2023/11/12 00:04:40;;;;;;;17.63;16.53;;;6.80;94.60;;;;;;4885308;29;20191;-54
2023/11/12 00:07:06;;;;;;;17.30;16.20;;;6.80;96.20;;;;;;4883796;29;20184;-53
2023/11/12 00:09:32;;;;;;;16.57;15.57;;;6.80;94.70;;;;;;4885335;29;20431;-48
2023/11/12 00:11:57;;;;;;;16.90;15.90;;;6.80;96.00;;;;;;4884683;29;20658;-49
2023/11/12 00:14:24;;;;;;;16.90;15.83;;;6.80;97.20;;;;;;4885313;29;20232;-55
2023/11/12 00:16:49;;;;;;;16.95;15.80;;;6.80;58.90;;;;;;4884814;29;20274;-54
2023/11/12 00:19:16;;;;;;;17.40;16.30;;;6.80;68.00;;;;;;4882143;29;20292;-52
2023/11/12 00:21:45;;;;;;;16.48;15.48;;;6.80;75.30;;;;;;4885475;29;20179;-53
2023/11/12 00:24:11;;;;;;;17.20;15.90;;;6.80;68.30;;;;;;4868042;29;20383;-50
2023/11/12 00:26:37;;;;;;;16.53;15.53;;;6.80;58.20;;;;;;4866979;29;20443;-52
2023/11/12 00:29:03;;;;;;;17.03;15.93;;;6.80;62.30;;;;;;4878978;29;20985;-51
2023/11/12 00:31:29;;;;;;;16.10;15.10;;;6.80;56.90;;;;;;4885220;29;20439;-56
2023/11/12 00:33:55;;;;;;;16.80;15.70;;;6.90;48.60;;;;;;4884717;29;21249;-54
2023/11/12 00:36:21;;;;;;;16.67;15.57;;;6.90;53.40;;;;;;4884430;29;20191;-54
2023/11/12 00:38:46;;;;;;;15.83;14.93;;;6.90;56.30;;;;;;4885370;29;20761;-46
2023/11/12 00:41:12;;;;;;;16.73;15.73;;;6.90;61.30;;;;;;4884913;29;20206;-52
2023/11/12 00:43:40;;;;;;;15.93;14.93;;;7.00;44.30;;;;;;4884960;29;20214;-54
2023/11/12 00:46:06;;;;;;;16.13;15.03;;;7.00;39.40;;;;;;4885745;29;20195;-54
2023/11/12 00:48:33;;;;;;;16.70;15.60;;;7.00;44.50;;;;;;4888701;29;20439;-55
2023/11/12 00:50:59;;;;;;;16.30;15.37;;;7.00;38.90;;;;;;4879696;29;20232;-54
2023/11/12 00:53:24;;;;;;;16.03;15.03;;;7.10;29.40;;;;;;4887240;29;20470;-56
2023/11/12 00:55:50;;;;;;;16.00;15.10;;;7.10;20.10;;;;;;4888205;29;21250;-55
2023/11/12 00:58:16;;;;;;;16.07;14.90;;;7.10;32.60;;;;;;4887981;29;20211;-54
2023/11/12 01:00:41;;;;;;;16.17;15.10;;;7.10;21.30;;;;;;4888429;29;20263;-51
2023/11/12 01:03:08;;;;;;;16.00;15.10;;;7.10;16.80;;;;;;4888019;29;20226;-52
2023/11/12 01:05:34;;;;;;;15.77;14.87;;;7.10;22.80;;;;;;4887401;29;20194;-49
2023/11/12 01:08:00;;;;;;;16.60;15.50;;;7.10;17.60;;;;;;4886516;29;20439;-55
2023/11/12 01:10:26;;;;;;;15.37;14.47;;;7.10;10.40;;;;;;4888227;29;20231;-56
2023/11/12 01:12:51;;;;;;;15.90;14.90;;;7.20;11.50;;;;;;4887635;29;20210;-53
2023/11/12 01:15:17;;;;;;;15.90;14.93;;;7.20;4.90;;;;;;4888278;29;20191;-53
2023/11/12 01:17:44;;;;;;;15.63;14.73;;;7.10;1.00;;;;;;4887780;29;20243;-40
2023/11/12 01:20:12;;;;;;;15.10;14.30;;;7.10;1.40;;;;;;4888110;29;20530;-42
2023/11/12 01:22:38;;;;;;;16.10;14.80;;;7.10;1.00;;;;;;4887636;29;21382;-42
2023/11/12 01:25:04;;;;;;;16.37;15.37;;;7.10;1.00;;;;;;4871451;29;20451;-50
2023/11/12 01:27:30;;;;;;;15.73;14.87;;;7.10;1.00;;;;;;4887382;29;20546;-53
2023/11/12 01:29:55;;;;;;;15.53;14.63;;;7.00;1.00;;;;;;4887894;29;20522;-54
2023/11/12 01:32:21;;;;;;;16.17;15.20;;;7.00;3.70;;;;;;4887743;29;20211;-52
2023/11/12 01:34:47;;;;;;;15.50;14.40;;;7.00;1.00;;;;;;4886416;29;20250;-52
2023/11/12 01:37:12;;;;;;;15.03;14.03;;;7.10;1.00;;;;;;4886089;29;20652;-51
2023/11/12 01:39:38;;;;;;;15.80;14.57;;;7.10;1.00;;;;;;4887237;29;20195;-51
2023/11/12 01:42:10;;;;;;;15.17;14.27;;;7.10;1.90;;;;;;4886684;29;20443;-51
2023/11/12 01:44:36;;;;;;;15.77;14.77;;;7.10;1.00;;;;;;4885248;29;20326;-53
2023/11/12 01:47:03;;;;;;;15.57;14.50;;;7.10;1.00;;;;;;4885386;29;20478;-51
2023/11/12 01:49:29;;;;;;;15.50;14.50;;;7.10;1.00;;;;;;4885975;29;20180;-50
2023/11/12 01:51:55;;;;;;;15.43;14.43;;;7.20;1.00;;;;;;4886903;29;20479;-50
2023/11/12 01:54:21;;;;;;;15.40;14.30;;;7.20;1.00;;;;;;4886382;29;20590;-54
2023/11/12 01:56:47;;;;;;;15.07;14.13;;;7.20;1.00;;;;;;4886191;29;20277;-51
2023/11/12 01:59:14;;;;;;;15.60;14.70;;;7.30;1.00;;;;;;4886297;29;20439;-54
2023/11/12 02:01:40;;;;;;;15.67;14.77;;;7.30;1.00;;;;;;4884589;29;20465;-54
2023/11/12 02:04:08;;;;;;;15.37;14.47;;;7.30;1.00;;;;;;4887466;29;20473;-53
2023/11/12 02:06:34;;;;;;;15.47;14.43;;;7.40;1.00;;;;;;4887117;29;21176;-56
2023/11/12 02:08:59;;;;;;;15.20;14.30;;;7.40;1.00;;;;;;4887390;29;20446;-54
2023/11/12 02:11:26;;;;;;;15.00;14.20;;;7.30;1.00;;;;;;4885472;29;20195;-54
2023/11/12 02:13:53;;;;;;;15.50;14.50;;;7.30;1.00;;;;;;4886919;29;20732;-55
2023/11/12 02:16:19;;;;;;;15.30;14.40;;;7.30;1.00;;;;;;4875610;29;20898;-54
2023/11/12 02:18:48;;;;;;;15.20;14.30;;;7.30;1.00;;;;;;4884652;29;20484;-53
2023/11/12 02:21:13;;;;;;;14.60;13.80;;;7.20;1.00;;;;;;4882543;29;20448;-54
2023/11/12 02:23:39;;;;;;;15.30;14.30;;;7.20;1.00;;;;;;4886263;29;20454;-53
2023/11/12 02:26:05;;;;;;;15.67;14.40;;;7.20;1.00;;;;;;4886372;29;20259;-52
2023/11/12 02:28:31;;;;;;;15.27;14.30;;;7.20;1.00;;;;;;4886408;29;20451;-52
2023/11/12 02:30:56;;;;;;;15.77;14.77;;;7.30;1.00;;;;;;4886180;29;20451;-54
2023/11/12 02:33:27;;;;;;;16.10;15.10;;;7.30;1.00;;;;;;4886080;29;20215;-52
2023/11/12 02:35:55;;;;;;;15.00;14.10;;;7.30;1.00;;;;;;4886191;29;20175;-53
2023/11/12 02:38:23;;;;;;;15.80;14.80;;;7.30;1.00;;;;;;4869927;29;20436;-52
2023/11/12 02:40:49;;;;;;;15.80;14.90;;;7.40;1.00;;;;;;4881111;29;20447;-54
2023/11/12 02:43:16;;;;;;;15.30;14.40;;;7.40;1.00;;;;;;4885825;29;20522;-52
2023/11/12 02:45:41;;;;;;;15.53;14.57;;;7.30;1.00;;;;;;4886684;29;20431;-53
2023/11/12 02:48:07;;;;;;;14.87;14.03;;;7.30;1.00;;;;;;4886423;29;20506;-53
2023/11/12 02:50:34;;;;;;;16.30;15.27;;;7.30;1.00;;;;;;4868997;29;20209;-50
2023/11/12 02:53:01;;;;;;;15.87;14.83;;;7.40;1.00;;;;;;4885961;29;20226;-54
2023/11/12 02:55:28;;;;;;;15.13;14.33;;;7.40;1.00;;;;;;4881311;29;20428;-54
2023/11/12 02:57:54;;;;;;;15.70;14.70;;;7.40;1.00;;;;;;4884144;29;20454;-46
2023/11/12 03:00:20;;;;;;;15.87;14.87;;;7.40;1.00;;;;;;4886385;29;20710;-54
2023/11/12 03:02:49;;;;;;;15.37;14.57;;;7.40;1.00;;;;;;4886593;29;20237;-51
2023/11/12 03:05:15;;;;;;;16.10;15.10;;;7.30;1.00;;;;;;4885095;29;20199;-54
2023/11/12 03:07:43;;;;;;;15.77;14.80;;;7.30;1.00;;;;;;4885669;29;20485;-53
2023/11/12 03:10:09;;;;;;;15.60;14.60;;;7.40;1.00;;;;;;4886059;29;20219;-53
2023/11/12 03:12:37;;;;;;;16.20;15.20;;;7.40;1.00;;;;;;4885750;29;20554;-54
2023/11/12 03:15:06;;;;;;;15.17;14.27;;;7.50;1.00;;;;;;4884578;29;20206;-51
2023/11/12 03:17:34;;;;;;;15.43;14.43;;;7.40;1.00;;;;;;4885432;29;20542;-46
2023/11/12 03:20:00;;;;;;;15.53;14.63;;;7.40;1.00;;;;;;4886438;29;20430;-50
2023/11/12 03:22:26;;;;;;;15.70;14.70;;;7.40;1.00;;;;;;4885426;29;21413;-53
2023/11/12 03:24:52;;;;;;;16.00;14.90;;;7.50;1.00;;;;;;4886399;29;20431;-50
2023/11/12 03:27:19;;;;;;;15.20;14.30;;;7.40;1.00;;;;;;4875339;29;20443;-54
2023/11/12 03:29:45;;;;;;;15.30;14.40;;;7.30;1.00;;;;;;4885064;29;20419;-52
2023/11/12 03:32:11;;;;;;;15.37;14.40;;;7.30;1.00;;;;;;4886323;29;20589;-53
2023/11/12 03:34:37;;;;;;;15.57;14.60;;;7.40;1.00;;;;;;4885735;29;21173;-54
2023/11/12 03:37:03;;;;;;;15.77;14.77;;;7.30;1.00;;;;;;4884162;29;20432;-50
2023/11/12 03:39:29;;;;;;;15.17;14.27;;;7.30;1.00;;;;;;4885900;29;20636;-55
2023/11/12 03:41:55;;;;;;;14.97;14.07;;;7.40;1.00;;;;;;4868916;29;20443;-51
2023/11/12 03:44:21;;;;;;;14.53;13.73;;;7.40;1.00;;;;;;4885370;29;20297;-50
2023/11/12 03:46:46;;;;;;;15.03;14.13;;;7.40;1.00;;;;;;4882530;29;20822;-51
2023/11/12 03:49:12;;;;;;;14.87;14.00;;;7.40;1.00;;;;;;4885301;29;20194;-52
2023/11/12 03:51:37;;;;;;;15.10;14.23;;;7.40;1.00;;;;;;4886095;29;20191;-52
2023/11/12 03:54:03;;;;;;;15.67;14.67;;;7.40;1.00;;;;;;4885586;29;20753;-54
2023/11/12 03:56:30;;;;;;;15.20;14.27;;;7.40;1.00;;;;;;4863527;29;20207;-50
2023/11/12 03:58:59;;;;;;;15.00;14.20;;;7.40;1.00;;;;;;4882672;29;20511;-45
2023/11/12 04:01:25;;;;;;;14.40;13.57;;;7.40;1.00;;;;;;4864900;29;20432;-56
2023/11/12 04:03:51;;;;;;;15.03;14.13;;;7.40;1.00;;;;;;4883695;29;20459;-49
2023/11/12 04:06:17;;;;;;;15.23;14.37;;;7.40;1.00;;;;;;4882740;29;20259;-52
2023/11/12 04:08:43;;;;;;;15.90;14.87;;;7.40;1.00;;;;;;4885102;29;20443;-58
2023/11/12 04:11:09;;;;;;;14.60;13.70;;;7.50;1.00;;;;;;4885243;29;20520;-54
2023/11/12 04:13:34;;;;;;;15.10;14.20;;;7.40;1.00;;;;;;4885467;29;20762;-51
2023/11/12 04:16:00;;;;;;;15.10;14.30;;;7.40;1.00;;;;;;4885522;29;20183;-53
2023/11/12 04:18:26;;;;;;;15.33;14.47;;;7.40;1.00;;;;;;4882242;29;20656;-53
2023/11/12 04:20:51;;;;;;;15.00;14.10;;;7.50;1.00;;;;;;4886434;29;20254;-56
2023/11/12 04:23:17;;;;;;;14.87;13.97;;;7.60;1.00;;;;;;4888406;29;20191;-51
2023/11/12 04:25:45;;;;;;;15.60;14.70;;;7.60;1.00;;;;;;4888677;29;20195;-55
2023/11/12 04:28:10;;;;;;;15.10;14.20;;;7.50;1.00;;;;;;4887916;29;20191;-55
2023/11/12 04:30:36;;;;;;;15.57;14.60;;;7.50;1.00;;;;;;4888873;29;20492;-52
2023/11/12 04:33:02;;;;;;;15.30;14.30;;;7.50;1.00;;;;;;4887465;29;20210;-53
2023/11/12 04:35:29;;;;;;;14.70;13.87;;;7.50;1.00;;;;;;4889566;29;20205;-51
2023/11/12 04:37:54;;;;;;;14.60;13.80;;;7.50;1.00;;;;;;4888159;29;20631;-51
2023/11/12 04:40:20;;;;;;;15.00;14.10;;;7.50;1.00;;;;;;4889312;29;20415;-52
2023/11/12 04:42:48;;;;;;;15.03;14.17;;;7.50;1.00;;;;;;4887909;29;21195;-51
2023/11/12 04:45:14;;;;;;;15.43;14.50;;;7.50;1.00;;;;;;4888250;29;20427;-49
2023/11/12 04:47:40;;;;;;;15.13;14.33;;;7.50;1.00;;;;;;4887778;29;20449;-52
2023/11/12 04:50:06;;;;;;;15.83;14.73;;;7.50;1.00;;;;;;4871164;29;20876;-53
2023/11/12 04:52:31;;;;;;;15.80;14.80;;;7.50;1.00;;;;;;4888284;29;20213;-52
2023/11/12 04:54:57;;;;;;;15.00;13.90;;;7.50;1.00;;;;;;4888093;29;20451;-54
2023/11/12 04:57:23;;;;;;;14.43;13.63;;;7.50;1.00;;;;;;4887621;29;20199;-52
2023/11/12 04:59:49;;;;;;;15.30;14.40;;;7.50;1.00;;;;;;4887393;29;20213;-52
2023/11/12 05:02:15;;;;;;;15.00;14.20;;;7.50;1.00;;;;;;4887815;29;20615;-52
2023/11/12 05:04:43;;;;;;;14.80;14.00;;;7.50;1.00;;;;;;4870994;29;20191;-55
2023/11/12 05:07:09;;;;;;;15.47;14.50;;;7.50;1.00;;;;;;4870512;29;20195;-51
2023/11/12 05:09:35;;;;;;;15.43;14.53;;;7.50;1.00;;;;;;4887915;29;20479;-53
2023/11/12 05:12:01;;;;;;;15.97;14.90;;;7.60;1.00;;;;;;4888375;29;20187;-52
2023/11/12 05:14:27;;;;;;;15.30;14.30;;;7.50;1.00;;;;;;4888641;29;20554;-54
2023/11/12 05:16:53;;;;;;;15.50;14.60;;;7.50;1.00;;;;;;4886885;29;20439;-52
2023/11/12 05:19:18;;;;;;;15.30;14.43;;;7.60;1.00;;;;;;4886760;29;20231;-53
2023/11/12 05:21:45;;;;;;;16.40;15.07;;;7.50;1.00;;;;;;4886659;29;20195;-53
2023/11/12 05:24:12;;;;;;;16.07;15.07;;;7.50;1.00;;;;;;4888650;29;20278;-53
2023/11/12 05:26:38;;;;;;;15.43;14.33;;;7.50;1.00;;;;;;4887768;29;20973;-51
2023/11/12 05:29:03;;;;;;;15.57;14.37;;;7.50;1.00;;;;;;4887537;29;20443;-54
2023/11/12 05:31:32;;;;;;;15.43;14.50;;;7.50;1.00;;;;;;4886550;29;20538;-47
2023/11/12 05:34:01;;;;;;;14.93;14.03;;;7.50;1.00;;;;;;4887934;29;20211;-51
2023/11/12 05:36:28;;;;;;;15.60;14.77;;;7.50;1.00;;;;;;4886050;29;20471;-52
2023/11/12 05:38:54;;;;;;;15.40;14.50;;;7.50;1.00;;;;;;4887828;29;20583;-50
2023/11/12 05:41:20;;;;;;;15.67;14.57;;;7.40;1.00;;;;;;4887680;29;20427;-49
2023/11/12 05:43:46;;;;;;;15.10;14.30;;;7.50;1.00;;;;;;4870346;29;20443;-55
2023/11/12 05:46:12;;;;;;;15.03;14.23;;;7.50;1.00;;;;;;4876310;29;20440;-55
2023/11/12 05:48:38;;;;;;;15.27;14.37;;;7.40;1.00;;;;;;4887674;29;20431;-52
2023/11/12 05:51:04;;;;;;;15.30;14.40;;;7.40;1.00;;;;;;4886402;29;20439;-50
2023/11/12 05:53:29;;;;;;;15.67;14.67;;;7.40;1.00;;;;;;4887075;29;20274;-54
2023/11/12 05:55:55;;;;;;;15.07;14.17;;;7.40;1.00;;;;;;4885718;29;20447;-54
2023/11/12 05:58:20;;;;;;;15.23;14.33;;;7.50;1.00;;;;;;4887348;29;20192;-54
2023/11/12 06:00:46;;;;;;;15.77;14.67;;;7.50;1.00;;;;;;4886268;29;20700;-55
2023/11/12 06:03:12;;;;;;;14.73;13.90;;;7.40;1.00;;;;;;4883208;29;20959;-55
2023/11/12 06:05:39;;;;;;;15.20;14.30;;;7.50;1.00;;;;;;4885557;29;20439;-51
2023/11/12 06:08:04;;;;;;;16.13;15.13;;;7.50;1.00;;;;;;4886174;29;20203;-53
2023/11/12 06:10:31;;;;;;;16.10;15.10;;;7.50;1.00;;;;;;4886764;29;20445;-51
2023/11/12 06:12:57;;;;;;;15.13;14.33;;;7.50;1.00;;;;;;4885343;29;20355;-52
2023/11/12 06:15:27;;;;;;;15.20;14.30;;;7.40;1.00;;;;;;4867501;29;20439;-54
2023/11/12 06:17:55;;;;;;;16.07;15.10;;;7.40;1.00;;;;;;4882352;29;20530;-52
2023/11/12 06:20:21;;;;;;;15.88;14.88;;;7.40;1.00;;;;;;4883806;29;20455;-54
2023/11/12 06:22:47;;;;;;;14.90;14.10;;;7.50;1.00;;;;;;4882980;29;20188;-53
2023/11/12 06:25:12;;;;;;;15.50;14.60;;;7.50;1.00;;;;;;4886523;29;20459;-52
2023/11/12 06:27:40;;;;;;;15.87;14.87;;;7.40;1.00;;;;;;4887306;29;20720;-59
2023/11/12 06:30:10;;;;;;;15.53;14.57;;;7.50;1.00;;;;;;4887265;29;20442;-52
2023/11/12 06:32:37;;;;;;;15.27;14.43;;;7.60;1.00;;;;;;4886170;29;20472;-55
2023/11/12 06:35:03;;;;;;;15.10;14.20;;;7.50;1.00;;;;;;4885325;29;20939;-51
2023/11/12 06:37:28;;;;;;;15.10;14.20;;;7.50;1.00;;;;;;4887179;29;20459;-52
2023/11/12 06:39:54;;;;;;;14.77;13.83;;;7.50;1.00;;;;;;4885590;29;20526;-52
2023/11/12 06:42:20;;;;;;;15.73;14.83;;;7.50;1.00;;;;;;4885212;29;20680;-56
2023/11/12 06:44:46;;;;;;;15.30;14.20;;;7.60;1.00;;;;;;4885511;29;20184;-52
2023/11/12 06:47:14;;;;;;;16.20;15.20;;;7.50;1.00;;;;;;4885464;29;20458;-57
2023/11/12 06:49:40;;;;;;;15.23;14.33;;;7.50;1.00;;;;;;4886199;29;20938;-55
2023/11/12 06:52:06;;;;;;;15.43;14.53;;;7.50;1.00;;;;;;4884663;29;20443;-53
2023/11/12 06:54:31;;;;;;;15.10;14.23;;;7.60;1.00;;;;;;4885264;29;20265;-50
2023/11/12 06:56:59;;;;;;;15.60;14.63;;;7.60;1.00;;;;;;4884102;29;20454;-54
2023/11/12 06:59:25;;;;;;;15.33;14.50;;;7.60;1.00;;;;;;4886414;29;20179;-59
2023/11/12 07:01:50;;;;;;;16.13;15.03;;;7.50;1.00;;;;;;4886155;29;20443;-57
2023/11/12 07:04:16;;;;;;;15.10;14.20;;;7.40;1.00;;;;;;4885599;29;20447;-52
2023/11/12 07:06:42;;;;;;;14.77;13.97;;;7.50;1.00;;;;;;4882506;29;20183;-53
2023/11/12 07:09:08;;;;;;;14.83;14.03;;;7.50;1.00;;;;;;4885388;29;20195;-52
2023/11/12 07:11:33;;;;;;;14.97;14.17;;;7.50;1.00;;;;;;4886379;29;20195;-54
2023/11/12 07:13:59;;;;;;;15.30;14.13;;;7.50;1.00;;;;;;4882720;29;20570;-54
2023/11/12 07:16:25;;;;;;;15.20;14.20;;;7.60;1.00;;;;;;4880389;29;20745;-53
2023/11/12 07:18:50;;;;;;;15.00;14.03;;;7.70;1.00;;;;;;4884231;29;21229;-54
2023/11/12 07:21:27;;;;;;;15.20;14.30;;;7.60;1.00;;;;;;4884180;29;20243;-49
2023/11/12 07:23:53;;;;;;;15.07;14.20;;;7.60;1.00;;;;;;4883379;29;20649;-54
2023/11/12 07:26:19;;;;;;;14.70;13.90;;;7.60;1.00;;;;;;4885313;29;20583;-54
2023/11/12 07:28:44;;;;;;;15.13;14.23;;;7.70;1.00;;;;;;4885889;29;20427;-53
2023/11/12 07:31:10;;;;;;;14.80;14.00;;;7.80;1.00;;;;;;4885850;29;20190;-52
2023/11/12 07:33:36;;;;;;;14.70;13.90;;;7.70;1.00;;;;;;4884879;29;20203;-52
2023/11/12 07:36:01;;;;;;;14.70;13.93;;;7.80;1.00;;;;;;4876410;29;20251;-53
2023/11/12 07:38:27;;;;;;;15.37;14.47;;;7.90;1.00;;;;;;4877182;29;20192;-52
2023/11/12 07:40:53;;;;;;;14.60;13.60;;;8.00;1.00;;;;;;4882526;29;20926;-53
2023/11/12 07:43:19;;;;;;;14.90;14.00;;;8.10;1.00;;;;;;4883311;29;20191;-51
2023/11/12 07:45:45;;;;;;;14.87;14.00;;;8.20;1.00;;;;;;4882357;29;20439;-53
2023/11/12 07:48:12;;;;;;;14.60;13.70;;;8.40;1.00;;;;;;4884861;29;20455;-53
2023/11/12 07:50:38;;;;;;;15.00;14.00;;;8.60;1.00;;;;;;4864589;29;20191;-52
2023/11/12 07:53:04;;;;;;;14.27;13.57;;;8.90;1.00;;;;;;4884027;29;20585;-53
2023/11/12 07:55:29;;;;;;;14.57;13.73;;;9.30;1.00;;;;;;4884223;29;20466;-55
2023/11/12 07:57:56;;;;;;;15.00;14.10;;;9.50;1.00;;;;;;4883109;29;20198;-54
2023/11/12 08:00:22;;;;;;;14.70;13.90;;;9.60;1.00;;;;;;4883622;29;20435;-50
2023/11/12 08:02:48;;;;;;;15.00;13.90;;;9.70;1.00;;;;;;4884513;29;20439;-52
2023/11/12 08:05:14;;;;;;;14.63;13.83;;;10.00;1.00;;;;;;4861617;29;20455;-51
2023/11/12 08:07:40;;;;;;;15.20;14.40;;;10.50;99.90;;;;;;4878732;29;20510;-57
2023/11/12 08:10:08;;;;;;;14.93;14.13;;;10.90;1.00;;;;;;4884499;29;20439;-55
2023/11/12 08:12:34;;;;;;;15.03;14.13;;;11.50;1.00;;;;;;4884950;29;20458;-58
2023/11/12 08:15:00;;;;;;;14.47;13.57;;;11.70;1.00;;;;;;4883200;29;20481;-56
2023/11/12 08:17:26;;;;;;;15.40;14.40;;;12.00;1.00;;;;;;4883614;29;20443;-53
2023/11/12 08:19:52;;;;;;;13.67;12.97;;;12.20;1.00;;;;;;4883922;29;20438;-40
2023/11/12 08:22:18;;;;;;;14.57;13.80;;;12.20;1.00;;;;;;4882347;29;20305;-41
2023/11/12 08:24:44;;;;;;;14.87;14.07;;;11.80;1.00;;;;;;4885657;29;20183;-40
2023/11/12 08:27:10;;;;;;;15.37;14.30;;;11.70;1.00;;;;;;4864339;29;20436;-41
2023/11/12 08:29:35;;;;;;;15.13;14.33;;;11.50;1.00;;;;;;4884765;29;20452;-53
2023/11/12 08:32:01;;;;;;;13.50;12.77;;;11.30;1.00;;;;;;4883542;29;20183;-40
2023/11/12 08:34:27;;;;;;;15.17;14.17;;;11.20;1.00;;;;;;4883963;29;20981;-40
2023/11/12 08:36:52;;;;;;;13.30;12.60;;;11.10;1.00;;;;;;4882218;29;20187;-40
2023/11/12 08:39:19;;;;;;;13.43;12.73;;;10.90;1.00;;;;;;4885585;29;21084;-39
2023/11/12 08:41:46;;;;;;;14.60;13.73;;;11.00;1.00;;;;;;4862215;29;20195;-41
2023/11/12 08:44:13;;;;;;;14.40;13.60;;;10.90;1.00;;;;;;4881524;29;21179;-52
2023/11/12 08:46:40;;;;;;;14.43;13.63;;;10.80;1.00;;;;;;4882845;29;20449;-55
2023/11/12 08:49:06;;;;;;;14.60;13.70;;;10.90;1.00;;;;;;4883355;29;20550;-50
2023/11/12 08:51:33;;;;;;;14.23;13.33;;;10.90;1.00;;;;;;4872494;29;20431;-40
2023/11/12 08:53:59;;;;;;;14.43;13.63;;;10.90;1.00;;;;;;4883162;29;20840;-40
2023/11/12 08:56:25;;;;;;;14.00;13.23;;;11.00;1.00;;;;;;4885157;29;20434;-42
2023/11/12 08:58:51;;;;;;;14.60;13.70;;;11.00;1.00;;;;;;4883574;29;20309;-40
2023/11/12 09:01:17;;;;;;;14.77;13.77;;;11.10;1.00;;;;;;4882668;29;20443;-40
2023/11/12 09:03:42;;;;;;;14.13;13.33;;;11.20;1.00;;;;;;4884579;29;20223;-40
2023/11/12 09:06:08;;;;;;;14.40;13.50;;;11.20;1.00;;;;;;4883476;29;20440;-41
2023/11/12 09:08:34;;;;;;;14.90;14.00;;;11.20;1.00;;;;;;4885370;29;20187;-41
2023/11/12 09:10:59;;;;;;;14.57;13.60;;;11.20;1.00;;;;;;4886618;29;20202;-44
2023/11/12 09:13:25;;;;;;;15.17;14.10;;;11.20;1.00;;;;;;4882786;29;20207;-41
2023/11/12 09:15:51;;;;;;;14.30;13.40;;;11.20;1.00;;;;;;4884365;29;20561;-42
2023/11/12 09:18:16;;;;;;;14.37;13.57;;;10.80;1.00;;;;;;4886413;29;20263;-40
2023/11/12 09:20:43;;;;;;;13.13;12.43;;;10.90;1.00;;;;;;4886464;29;20183;-45
2023/11/12 09:23:09;;;;;;;15.10;14.10;;;10.90;1.00;;;;;;4886642;29;20271;-41
2023/11/12 09:25:35;;;;;;;13.83;13.13;;;11.00;1.00;;;;;;4887828;29;20431;-42
2023/11/12 09:28:02;;;;;;;13.80;13.00;;;11.20;1.00;;;;;;4886939;29;20432;-40
2023/11/12 09:30:31;;;;;;;14.20;13.40;;;11.20;1.00;;;;;;4887123;29;20303;-41
2023/11/12 09:32:57;;;;;;;14.40;13.50;;;11.30;1.00;;;;;;4886517;29;20466;-45
2023/11/12 09:35:23;;;;;;;14.50;13.70;;;11.60;1.00;;;;;;4886414;29;20411;-40
2023/11/12 09:37:50;;;;;;;13.60;12.80;;;11.60;1.00;;;;;;4886580;29;20254;-43
2023/11/12 09:40:16;;;;;;;13.43;12.77;;;11.70;1.00;;;;;;4886741;29;20423;-41
2023/11/12 09:42:48;;;;;;;14.50;13.70;;;11.90;1.00;;;;;;4886949;29;20455;-42
2023/11/12 09:45:14;;;;;;;14.13;13.23;;;12.30;1.00;;;;;;4886702;29;20423;-40
2023/11/12 09:47:53;;;;;;;14.47;13.67;;;13.20;1.00;;;;;;4886818;29;20423;-45
2023/11/12 09:50:23;;;;;;;13.50;12.70;;;13.70;1.00;;;;;;4887258;29;20842;-43
2023/11/12 09:52:50;;;;;;;13.83;13.13;;;14.00;99.90;;;;;;4888140;29;20473;-44
2023/11/12 09:55:17;;;;;;;13.07;12.37;;;14.40;99.90;;;;;;4888082;29;20424;-46
2023/11/12 09:57:44;;;;;;;14.83;14.03;;;14.60;99.90;;;;;;4888062;29;20526;-45
2023/11/12 10:00:12;;;;;;;14.27;13.47;;;14.80;99.90;;;;;;4887921;29;20463;-43
2023/11/12 10:02:41;;;;;;;14.10;13.30;;;15.10;99.90;;;;;;4887990;29;20461;-42
2023/11/12 10:05:14;;;;;;;14.30;13.50;;;15.20;99.90;;;;;;4887599;29;20708;-42
2023/11/12 10:07:40;;;;;;;13.60;12.90;;;15.80;99.90;;;;;;4886952;29;20459;-42
2023/11/12 10:10:20;;;;;;;13.37;12.67;;;16.40;99.90;;;;;;4887445;29;20415;-41
2023/11/12 10:12:46;;;;;;;14.60;13.73;;;16.80;99.90;;;;;;4887610;29;21328;-44
2023/11/12 10:15:11;;;;;;;13.70;13.00;;;16.70;99.90;;;;;;4868499;29;20447;-47
2023/11/12 10:17:44;;;;;;;13.50;12.80;;;16.50;99.90;;;;;;4886852;29;20261;-42
2023/11/12 10:20:19;;;;;;;13.80;13.10;;;16.60;99.90;;;;;;4887066;29;20194;-44
2023/11/12 10:22:45;;;;;;;14.13;13.33;;;16.40;99.90;;;;;;4887266;29;20445;-43
2023/11/12 10:25:10;;;;;;;14.50;13.70;;;15.60;99.90;;;;;;4886666;29;20789;-40
2023/11/12 10:27:52;;;;;;;14.43;13.63;;;15.70;99.90;;;;;;4884567;29;20188;-42
2023/11/12 10:30:20;;;;;;;13.90;13.13;;;16.40;99.90;;;;;;4886756;29;20183;-42
2023/11/12 10:32:45;;;;;;;14.93;14.00;;;16.20;99.90;;;;;;4869873;29;20467;-43
2023/11/12 10:35:23;;;;;;;14.20;13.50;;;15.90;99.90;;;;;;4886913;29;20422;-42
2023/11/12 10:37:56;;;;;;;14.47;13.73;;;15.20;99.90;;;;;;4887234;29;20419;-41
2023/11/12 10:40:23;;;;;;;13.90;13.20;;;14.40;99.90;;;;;;4887286;29;20423;-41
2023/11/12 10:42:48;;;;;;;13.07;12.23;;;13.80;99.90;;;;;;4886908;29;20460;-44
2023/11/12 10:45:18;;;;;;;13.67;12.97;;;13.40;99.90;;;;;;4886540;29;20514;-41
2023/11/12 10:47:48;;;;;;;13.53;12.80;;;12.90;99.90;;;;;;4886393;29;20685;-41
2023/11/12 10:50:15;;;;;;;13.93;13.20;;;12.90;99.90;;;;;;4886867;29;20765;-42
2023/11/12 10:52:42;;;;;;;14.27;13.47;;;13.20;99.90;;;;;;4886759;29;20890;-41
2023/11/12 10:55:09;;;;;;;14.60;13.80;;;13.60;99.90;;;;;;4887025;29;20418;-42
2023/11/12 10:57:35;;;;;;;14.10;13.30;;;13.50;99.90;;;;;;4882052;29;20441;-45
2023/11/12 11:00:06;;;;;;;14.17;13.37;;;13.30;99.90;;;;;;4884698;29;20443;-45
2023/11/12 11:02:36;;;;;;;13.67;12.87;;;13.20;99.90;;;;;;4884446;29;21217;-44
2023/11/12 11:05:02;;;;;;;13.73;13.03;;;12.70;99.90;;;;;;4886595;29;20412;-45
2023/11/12 11:07:28;;;;;;;13.60;12.90;;;12.40;99.90;;;;;;4886249;29;20510;-44
2023/11/12 11:09:53;;;;;;;13.33;12.63;;;12.10;99.90;;;;;;4886427;29;20507;-46
2023/11/12 11:12:20;;;;;;;13.60;12.90;;;11.90;99.90;;;;;;4884926;29;20202;-45
2023/11/12 11:14:46;;;;;;;12.80;12.10;;;11.80;99.90;;;;;;4886253;29;20214;-46
2023/11/12 11:17:36;;;;;;;14.07;13.30;;;12.10;99.90;;;;;;4885183;29;20442;-41
2023/11/12 11:20:05;;;;;;;13.83;13.13;;;12.70;99.90;;;;;;4885751;29;20854;-42
2023/11/12 11:22:32;;;;;;;13.50;12.90;;;13.20;99.90;;;;;;4884252;29;20467;-42
2023/11/12 11:24:58;;;;;;;13.33;12.70;;;13.20;99.90;;;;;;4886343;29;20423;-43
2023/11/12 11:27:26;;;;;;;13.47;12.73;;;13.10;99.90;;;;;;4885903;29;20423;-44
2023/11/12 11:30:14;;;;;;;13.87;13.20;;;12.80;99.90;;;;;;4884943;29;20507;-42
2023/11/12 11:32:55;;;;;;;13.20;12.40;;;12.10;99.90;;;;;;4883818;29;20530;-43
2023/11/12 11:35:22;;;;;;;12.77;12.17;;;11.60;99.90;;;;;;4885655;29;20451;-43
2023/11/12 11:38:09;;;;;;;12.17;11.63;;;11.30;99.90;;;;;;4884259;29;20443;-43
2023/11/12 11:40:36;;;;;;;12.73;12.10;;;11.00;99.90;;;;;;4885381;29;20423;-45
2023/11/12 11:43:23;;;;;;;12.80;12.20;;;10.90;99.90;;;;;;4885067;29;20454;-42
2023/11/12 11:46:08;;;;;;;13.13;12.53;;;10.80;99.90;;;;;;4885033;29;21070;-40
2023/11/12 11:48:33;;;;;;;13.87;13.07;;;10.40;99.90;;;;;;4884752;29;20454;-40
2023/11/12 11:50:59;;;;;;;12.83;12.23;;;10.30;99.90;;;;;;4886356;29;20427;-40
2023/11/12 11:53:28;;;;;;;13.63;12.87;;;10.20;99.90;;;;;;4885613;29;20732;-40
2023/11/12 11:56:05;;;;;;;13.47;12.87;;;10.10;99.90;;;;;;4868590;29;20651;-40
2023/11/12 11:58:47;;;;;;;13.30;12.60;;;10.10;99.90;;;;;;4883264;29;20777;-40
2023/11/12 12:01:13;;;;;;;13.33;12.63;;;10.00;99.90;;;;;;4883554;29;20443;-40
2023/11/12 12:03:38;;;;;;;13.30;12.60;;;10.00;99.90;;;;;;4883987;29;20814;-39
2023/11/12 12:06:27;;;;;;;12.90;12.20;;;10.00;99.90;;;;;;4883102;29;20191;-45
2023/11/12 12:08:55;;;;;;;12.50;11.90;;;10.20;99.90;;;;;;4884965;29;20670;-41
2023/11/12 12:11:22;;;;;;;13.27;12.67;;;10.10;99.90;;;;;;4884537;29;20435;-40
2023/11/12 12:14:04;;;;;;;13.17;12.57;;;10.10;99.90;;;;;;4884440;29;20474;-40
2023/11/12 12:16:32;;;;;;;13.70;13.10;;;10.00;99.90;;;;;;4884975;29;20450;-40
2023/11/12 12:18:58;;;;;;;12.50;11.90;;;9.90;99.90;;;;;;4884707;29;20462;-43
2023/11/12 12:21:24;;;;;;;12.20;11.60;;;9.90;99.90;;;;;;4884628;29;20443;-51
2023/11/12 12:23:50;;;;;;;12.73;12.13;;;9.90;99.90;;;;;;4884508;29;20436;-40
2023/11/12 12:26:17;;;;;;;12.63;12.03;;;9.80;99.90;;;;;;4882920;29;20420;-40
2023/11/12 12:28:43;;;;;;;12.33;11.80;;;9.80;99.90;;;;;;4882865;29;20432;-43
2023/11/12 12:31:09;;;;;;;13.17;12.47;;;9.80;99.90;;;;;;4883105;29;20435;-40
2023/11/12 12:33:36;;;;;;;12.80;12.20;;;9.80;99.90;;;;;;4882759;29;20517;-40
2023/11/12 12:36:13;;;;;;;12.97;12.27;;;9.70;99.90;;;;;;4882717;29;20423;-40
2023/11/12 12:38:58;;;;;;;12.30;11.70;;;9.90;99.90;;;;;;4883067;29;20435;-41
2023/11/12 12:41:25;;;;;;;12.90;12.30;;;9.80;99.90;;;;;;4885695;29;20901;-41